Time,TemperatureF,DewpointF,PressureIn,WindDirection,WindDirectionDegrees,WindSpeedMPH,WindSpeedGustMPH,Humidity,HourlyPrecipIn,Conditions,Clouds,dailyrainin,SoftwareType,DateUTC
2013-03-24 00:03:00,27.2,26.0,29.41,WSW,240,0.0,0.0,95,0.00,,,0.00,Wunderground v.1.15,2013-03-24 03:03:00,
2013-03-24 00:08:00,27.2,26.0,29.41,WSW,240,0.0,0.0,95,0.00,,,0.00,Wunderground v.1.15,2013-03-24 03:08:00,
2013-03-24 00:13:00,27.5,26.5,29.41,WSW,240,0.0,0.0,96,0.00,,,0.00,Wunderground v.1.15,2013-03-24 03:13:00,
2013-03-24 00:23:00,27.8,26.8,29.41,WSW,240,0.0,0.0,96,0.00,,,0.00,Wunderground v.1.15,2013-03-24 03:23:00,
2013-03-24 00:28:00,27.9,26.9,29.41,WSW,240,0.0,0.0,96,0.00,,,0.00,Wunderground v.1.15,2013-03-24 03:28:00,
2013-03-24 00:33:00,28.0,26.8,29.41,WSW,240,0.0,0.0,95,0.00,,,0.00,Wunderground v.1.15,2013-03-24 03:33:00,
2013-03-24 00:38:00,27.9,26.7,29.41,WSW,240,0.0,0.0,95,0.00,,,0.00,Wunderground v.1.15,2013-03-24 03:38:00,
2013-03-24 00:43:00,27.9,26.7,29.41,WSW,240,0.0,0.0,95,0.00,,,0.00,Wunderground v.1.15,2013-03-24 03:43:00,
2013-03-24 00:48:00,27.9,26.7,29.41,WSW,240,0.0,0.0,95,0.00,,,0.00,Wunderground v.1.15,2013-03-24 03:48:00,
2013-03-24 00:53:00,28.1,27.1,29.41,WSW,240,0.0,0.0,96,0.00,,,0.00,Wunderground v.1.15,2013-03-24 03:53:00,
2013-03-24 00:58:00,28.1,27.1,29.41,WSW,240,0.0,0.0,96,0.00,,,0.00,Wunderground v.1.15,2013-03-24 03:58:00,
2013-03-24 01:03:00,28.2,27.2,29.41,WSW,240,0.0,0.0,96,0.00,,,0.00,Wunderground v.1.15,2013-03-24 04:03:00,
2013-03-24 01:08:00,28.3,27.3,29.41,WSW,240,0.0,0.0,96,0.00,,,0.00,Wunderground v.1.15,2013-03-24 04:08:00,
2013-03-24 01:13:00,28.3,27.3,29.41,WSW,240,0.0,0.0,96,0.00,,,0.00,Wunderground v.1.15,2013-03-24 04:13:00,
2013-03-24 01:18:00,28.3,27.3,29.41,WSW,240,0.0,0.0,96,0.00,,,0.00,Wunderground v.1.15,2013-03-24 04:18:00,
2013-03-24 01:23:00,28.4,27.4,29.41,WSW,240,0.0,0.0,96,0.00,,,0.00,Wunderground v.1.15,2013-03-24 04:23:00,
2013-03-24 01:28:00,28.4,27.4,29.41,WSW,240,0.0,0.0,96,0.00,,,0.00,Wunderground v.1.15,2013-03-24 04:28:00,
2013-03-24 01:33:00,28.4,27.4,29.41,WSW,240,0.0,0.0,96,0.00,,,0.00,Wunderground v.1.15,2013-03-24 04:33:00,
2013-03-24 01:43:00,28.4,27.4,29.41,WSW,240,0.0,0.0,96,0.00,,,0.00,Wunderground v.1.15,2013-03-24 04:43:00,
2013-03-24 01:48:00,28.5,27.5,29.41,WSW,240,0.0,0.0,96,0.00,,,0.00,Wunderground v.1.15,2013-03-24 04:48:00,
2013-03-24 01:53:00,28.5,27.5,29.41,WSW,240,0.0,0.0,96,0.00,,,0.00,Wunderground v.1.15,2013-03-24 04:53:00,
2013-03-24 01:58:00,28.4,27.4,29.41,WSW,240,0.0,0.0,96,0.00,,,0.00,Wunderground v.1.15,2013-03-24 04:58:00,
2013-03-24 02:03:00,28.3,27.3,29.41,WSW,240,0.0,0.0,96,0.00,,,0.00,Wunderground v.1.15,2013-03-24 05:03:00,
2013-03-24 02:13:00,28.1,27.1,29.41,WSW,240,0.0,0.0,96,0.00,,,0.00,Wunderground v.1.15,2013-03-24 05:13:00,
2013-03-24 02:18:00,28.0,27.0,29.41,WSW,240,0.0,0.0,96,0.00,,,0.00,Wunderground v.1.15,2013-03-24 05:18:00,
2013-03-24 02:23:00,28.0,27.0,29.42,WSW,240,0.0,0.0,96,0.00,,,0.00,Wunderground v.1.15,2013-03-24 05:23:00,
2013-03-24 02:28:00,28.0,27.0,29.42,WSW,240,0.0,0.0,96,0.00,,,0.00,Wunderground v.1.15,2013-03-24 05:28:00,
2013-03-24 02:33:00,28.0,27.0,29.41,WSW,240,0.0,0.0,96,0.00,,,0.00,Wunderground v.1.15,2013-03-24 05:33:00,
2013-03-24 02:38:00,27.9,26.9,29.42,WSW,240,0.0,0.0,96,0.00,,,0.00,Wunderground v.1.15,2013-03-24 05:38:00,
2013-03-24 02:43:00,27.8,26.8,29.42,WSW,240,0.0,0.0,96,0.00,,,0.00,Wunderground v.1.15,2013-03-24 05:43:00,
2013-03-24 02:48:00,27.8,26.8,29.42,WSW,240,0.0,0.0,96,0.00,,,0.00,Wunderground v.1.15,2013-03-24 05:48:00,
2013-03-24 02:53:00,27.8,26.8,29.42,WSW,240,0.0,0.0,96,0.00,,,0.00,Wunderground v.1.15,2013-03-24 05:53:00,
2013-03-24 02:58:00,27.8,27.1,29.42,WSW,240,0.0,0.0,97,0.00,,,0.00,Wunderground v.1.15,2013-03-24 05:58:00,
2013-03-24 03:03:00,27.9,27.2,29.42,WSW,240,0.0,0.0,97,0.00,,,0.00,Wunderground v.1.15,2013-03-24 06:03:00,
2013-03-24 03:08:00,27.8,27.1,29.42,WSW,240,0.0,0.0,97,0.00,,,0.00,Wunderground v.1.15,2013-03-24 06:08:00,
2013-03-24 03:13:00,27.6,26.9,29.42,WSW,240,0.0,0.0,97,0.00,,,0.00,Wunderground v.1.15,2013-03-24 06:13:00,
2013-03-24 03:18:00,27.5,26.5,29.42,WSW,240,0.0,0.0,96,0.00,,,0.00,Wunderground v.1.15,2013-03-24 06:18:00,
2013-03-24 03:23:00,27.4,26.7,29.42,WSW,240,0.0,0.0,97,0.00,,,0.00,Wunderground v.1.15,2013-03-24 06:23:00,
2013-03-24 03:28:00,27.5,26.8,29.42,WSW,240,0.0,0.0,97,0.00,,,0.00,Wunderground v.1.15,2013-03-24 06:28:00,
2013-03-24 03:33:00,27.5,26.8,29.42,WSW,240,0.0,0.0,97,0.00,,,0.00,Wunderground v.1.15,2013-03-24 06:33:00,
2013-03-24 03:38:00,27.6,26.9,29.42,WSW,240,0.0,0.0,97,0.00,,,0.00,Wunderground v.1.15,2013-03-24 06:38:00,
2013-03-24 03:43:00,27.6,26.9,29.42,WSW,240,0.0,0.0,97,0.00,,,0.00,Wunderground v.1.15,2013-03-24 06:43:00,
2013-03-24 03:48:00,27.7,27.0,29.42,WSW,240,0.0,0.0,97,0.00,,,0.00,Wunderground v.1.15,2013-03-24 06:48:00,
2013-03-24 03:53:00,27.8,27.1,29.42,WSW,240,0.0,0.0,97,0.00,,,0.00,Wunderground v.1.15,2013-03-24 06:53:00,
2013-03-24 03:58:00,27.8,27.1,29.42,WSW,240,0.0,0.0,97,0.00,,,0.00,Wunderground v.1.15,2013-03-24 06:58:00,
2013-03-24 04:03:00,27.7,27.0,29.42,WSW,240,0.0,0.0,97,0.00,,,0.00,Wunderground v.1.15,2013-03-24 07:03:00,
2013-03-24 04:08:00,27.7,27.0,29.42,WSW,240,0.0,0.0,97,0.00,,,0.00,Wunderground v.1.15,2013-03-24 07:08:00,
2013-03-24 04:13:00,27.8,27.1,29.42,WSW,240,0.0,0.0,97,0.00,,,0.00,Wunderground v.1.15,2013-03-24 07:13:00,
2013-03-24 04:18:00,27.8,27.1,29.42,WSW,240,0.0,0.0,97,0.00,,,0.00,Wunderground v.1.15,2013-03-24 07:18:00,
2013-03-24 04:28:00,27.8,27.1,29.42,WSW,240,0.0,0.0,97,0.00,,,0.00,Wunderground v.1.15,2013-03-24 07:28:00,
2013-03-24 04:33:00,27.8,27.1,29.42,WSW,240,0.0,0.0,97,0.00,,,0.00,Wunderground v.1.15,2013-03-24 07:33:00,
2013-03-24 04:38:00,27.8,27.1,29.42,WSW,240,0.0,0.0,97,0.00,,,0.00,Wunderground v.1.15,2013-03-24 07:38:00,
2013-03-24 04:43:00,27.9,27.2,29.42,WSW,240,0.0,0.0,97,0.00,,,0.00,Wunderground v.1.15,2013-03-24 07:43:00,
2013-03-24 04:48:00,27.9,27.2,29.43,WSW,240,0.0,0.0,97,0.00,,,0.00,Wunderground v.1.15,2013-03-24 07:48:00,
2013-03-24 04:53:00,27.9,27.2,29.42,WSW,240,0.0,0.0,97,0.00,,,0.00,Wunderground v.1.15,2013-03-24 07:53:00,
2013-03-24 04:58:00,27.9,27.2,29.43,WSW,240,0.0,0.0,97,0.00,,,0.00,Wunderground v.1.15,2013-03-24 07:58:00,
2013-03-24 05:03:00,27.8,27.1,29.43,WSW,240,0.0,0.0,97,0.00,,,0.00,Wunderground v.1.15,2013-03-24 08:03:00,
2013-03-24 05:08:00,27.8,27.1,29.43,WSW,240,0.0,0.0,97,0.00,,,0.00,Wunderground v.1.15,2013-03-24 08:08:00,
2013-03-24 05:13:00,27.7,27.0,29.43,WSW,240,0.0,0.0,97,0.00,,,0.00,Wunderground v.1.15,2013-03-24 08:13:00,
2013-03-24 05:18:00,27.7,27.0,29.43,WSW,240,0.0,0.0,97,0.00,,,0.00,Wunderground v.1.15,2013-03-24 08:18:00,
2013-03-24 05:23:00,27.8,27.1,29.43,WSW,240,0.0,0.0,97,0.00,,,0.00,Wunderground v.1.15,2013-03-24 08:23:00,
2013-03-24 05:33:00,27.8,27.1,29.44,WSW,240,0.0,0.0,97,0.00,,,0.00,Wunderground v.1.15,2013-03-24 08:33:00,
2013-03-24 05:38:00,27.8,27.1,29.44,WSW,240,0.0,0.0,97,0.00,,,0.00,Wunderground v.1.15,2013-03-24 08:38:00,
2013-03-24 05:43:00,27.8,27.1,29.44,WSW,246,0.0,0.0,97,0.00,,,0.00,Wunderground v.1.15,2013-03-24 08:43:00,
2013-03-24 05:48:00,27.9,27.2,29.44,NNE,15,0.0,0.0,97,0.00,,,0.00,Wunderground v.1.15,2013-03-24 08:48:00,
2013-03-24 05:58:00,28.1,27.4,29.45,NNE,19,1.0,1.0,97,0.00,,,0.00,Wunderground v.1.15,2013-03-24 08:58:00,
2013-03-24 06:03:00,28.2,27.5,29.45,NNE,12,1.0,1.0,97,0.00,,,0.00,Wunderground v.1.15,2013-03-24 09:03:00,
2013-03-24 06:08:00,28.3,27.6,29.45,NNE,14,1.0,2.0,97,0.00,,,0.00,Wunderground v.1.15,2013-03-24 09:08:00,
2013-03-24 06:13:00,28.3,27.6,29.45,NNE,15,2.0,4.0,97,0.00,,,0.00,Wunderground v.1.15,2013-03-24 09:13:00,
2013-03-24 06:18:00,28.3,27.6,29.45,North,5,3.0,3.0,97,0.00,,,0.00,Wunderground v.1.15,2013-03-24 09:18:00,
2013-03-24 06:23:00,28.3,27.6,29.45,North,5,2.0,3.0,97,0.00,,,0.00,Wunderground v.1.15,2013-03-24 09:23:00,
2013-03-24 06:33:00,28.3,27.6,29.46,North,5,2.0,3.0,97,0.00,,,0.00,Wunderground v.1.15,2013-03-24 09:33:00,
2013-03-24 06:43:00,28.3,27.6,29.46,NNE,19,2.0,3.0,97,0.00,,,0.00,Wunderground v.1.15,2013-03-24 09:43:00,
2013-03-24 06:48:00,28.3,27.6,29.46,North,355,2.0,3.0,97,0.00,,,0.00,Wunderground v.1.15,2013-03-24 09:48:00,
2013-03-24 06:53:00,28.3,27.6,29.47,NNE,13,2.0,3.0,97,0.00,,,0.00,Wunderground v.1.15,2013-03-24 09:53:00,
2013-03-24 06:58:00,28.4,27.7,29.47,North,360,2.0,2.0,97,0.00,,,0.00,Wunderground v.1.15,2013-03-24 09:58:00,
2013-03-24 07:03:00,28.5,27.8,29.47,NNE,15,2.0,3.0,97,0.00,,,0.00,Wunderground v.1.15,2013-03-24 10:03:00,
2013-03-24 07:08:00,28.5,27.8,29.47,North,350,3.0,4.0,97,0.00,,,0.00,Wunderground v.1.15,2013-03-24 10:08:00,
2013-03-24 07:18:00,28.6,27.9,29.48,North,5,3.0,3.0,97,0.00,,,0.00,Wunderground v.1.15,2013-03-24 10:18:00,
2013-03-24 07:28:00,28.7,28.0,29.48,NE,52,3.0,3.0,97,0.00,,,0.00,Wunderground v.1.15,2013-03-24 10:28:00,
2013-03-24 07:33:00,28.7,27.7,29.48,North,360,3.0,3.0,96,0.00,,,0.00,Wunderground v.1.15,2013-03-24 10:33:00,
2013-03-24 07:38:00,28.7,27.7,29.48,North,360,3.0,3.0,96,0.00,,,0.00,Wunderground v.1.15,2013-03-24 10:38:00,
2013-03-24 07:43:00,28.7,27.7,29.49,NNE,12,3.0,3.0,96,0.00,,,0.00,Wunderground v.1.15,2013-03-24 10:43:00,
2013-03-24 07:53:00,28.6,27.6,29.49,North,9,2.0,3.0,96,0.00,,,0.00,Wunderground v.1.15,2013-03-24 10:53:00,
2013-03-24 07:58:00,28.6,27.6,29.49,NNE,13,3.0,3.0,96,0.00,,,0.00,Wunderground v.1.15,2013-03-24 10:58:00,
2013-03-24 08:03:00,28.6,27.6,29.49,North,5,3.0,3.0,96,0.00,,,0.00,Wunderground v.1.15,2013-03-24 11:03:00,
2013-03-24 08:08:00,28.6,27.6,29.49,NNE,16,2.0,3.0,96,0.00,,,0.00,Wunderground v.1.15,2013-03-24 11:08:00,
2013-03-24 08:13:00,28.6,27.4,29.50,North,11,2.0,3.0,95,0.00,,,0.00,Wunderground v.1.15,2013-03-24 11:13:00,
2013-03-24 08:18:00,28.7,27.4,29.50,NNW,348,3.0,3.0,95,0.00,,,0.00,Wunderground v.1.15,2013-03-24 11:18:00,
2013-03-24 08:23:00,28.7,27.4,29.50,North,355,4.0,4.0,95,0.00,,,0.00,Wunderground v.1.15,2013-03-24 11:23:00,
2013-03-24 08:28:00,28.7,27.2,29.51,NE,46,3.0,3.0,94,0.00,,,0.00,Wunderground v.1.15,2013-03-24 11:28:00,
2013-03-24 08:33:00,28.7,27.2,29.51,North,355,3.0,3.0,94,0.00,,,0.00,Wunderground v.1.15,2013-03-24 11:33:00,
2013-03-24 08:38:00,28.7,27.2,29.51,North,5,3.0,3.0,94,0.00,,,0.00,Wunderground v.1.15,2013-03-24 11:38:00,
2013-03-24 08:43:00,28.7,26.9,29.51,North,355,2.0,4.0,93,0.00,,,0.00,Wunderground v.1.15,2013-03-24 11:43:00,
2013-03-24 08:48:00,28.7,26.9,29.51,NE,34,2.0,4.0,93,0.00,,,0.00,Wunderground v.1.15,2013-03-24 11:48:00,
2013-03-24 08:58:00,29.0,27.2,29.51,North,5,3.0,3.0,93,0.00,,,0.00,Wunderground v.1.15,2013-03-24 11:58:00,
2013-03-24 09:03:00,29.1,27.3,29.51,North,360,3.0,3.0,93,0.00,,,0.00,Wunderground v.1.15,2013-03-24 12:03:00,
2013-03-24 09:08:00,29.2,27.4,29.52,North,5,4.0,4.0,93,0.00,,,0.00,Wunderground v.1.15,2013-03-24 12:08:00,
2013-03-24 09:13:00,29.4,27.6,29.52,NE,38,4.0,4.0,93,0.00,,,0.00,Wunderground v.1.15,2013-03-24 12:13:00,
2013-03-24 09:18:00,29.7,27.9,29.52,North,5,3.0,3.0,93,0.00,,,0.00,Wunderground v.1.15,2013-03-24 12:18:00,
2013-03-24 09:23:00,29.9,27.9,29.53,NNE,20,3.0,3.0,92,0.00,,,0.00,Wunderground v.1.15,2013-03-24 12:23:00,
2013-03-24 09:28:00,30.0,27.7,29.53,NNE,27,4.0,4.0,91,0.00,,,0.00,Wunderground v.1.15,2013-03-24 12:28:00,
2013-03-24 09:33:00,29.9,27.6,29.53,NNW,346,4.0,4.0,91,0.00,,,0.00,Wunderground v.1.15,2013-03-24 12:33:00,
2013-03-24 09:38:00,30.0,28.0,29.53,NNE,19,4.0,4.0,92,0.00,,,0.00,Wunderground v.1.15,2013-03-24 12:38:00,
2013-03-24 09:43:00,30.1,28.1,29.53,North,11,4.0,4.0,92,0.00,,,0.00,Wunderground v.1.15,2013-03-24 12:43:00,
2013-03-24 09:48:00,30.3,28.0,29.54,NNW,327,3.0,4.0,91,0.00,,,0.00,Wunderground v.1.15,2013-03-24 12:48:00,
2013-03-24 09:58:00,30.2,27.9,29.54,NNE,18,5.0,5.0,91,0.00,,,0.00,Wunderground v.1.15,2013-03-24 12:58:00,
2013-03-24 10:03:00,30.2,27.9,29.55,North,355,4.0,5.0,91,0.00,,,0.00,Wunderground v.1.15,2013-03-24 13:03:00,
2013-03-24 10:08:00,30.3,28.0,29.55,NNE,28,4.0,5.0,91,0.00,,,0.00,Wunderground v.1.15,2013-03-24 13:08:00,
2013-03-24 10:18:00,30.3,28.0,29.56,North,360,4.0,4.0,91,0.00,,,0.00,Wunderground v.1.15,2013-03-24 13:18:00,
2013-03-24 10:23:00,30.5,27.9,29.56,North,351,4.0,4.0,90,0.00,,,0.00,Wunderground v.1.15,2013-03-24 13:23:00,
2013-03-24 10:28:00,30.5,27.6,29.56,NNE,15,4.0,4.0,89,0.00,,,0.00,Wunderground v.1.15,2013-03-24 13:28:00,
2013-03-24 10:33:00,30.4,27.5,29.56,North,360,4.0,4.0,89,0.00,,,0.00,Wunderground v.1.15,2013-03-24 13:33:00,
2013-03-24 10:38:00,30.4,27.5,29.56,NNE,17,4.0,5.0,89,0.00,,,0.00,Wunderground v.1.15,2013-03-24 13:38:00,
2013-03-24 10:43:00,30.2,27.6,29.56,NNW,332,4.0,7.0,90,0.00,,,0.00,Wunderground v.1.15,2013-03-24 13:43:00,
2013-03-24 10:48:00,30.3,27.7,29.57,NNE,19,5.0,8.0,90,0.00,,,0.00,Wunderground v.1.15,2013-03-24 13:48:00,
2013-03-24 10:53:00,30.4,27.5,29.57,North,355,5.0,8.0,89,0.00,,,0.00,Wunderground v.1.15,2013-03-24 13:53:00,
2013-03-24 10:58:00,30.7,27.8,29.57,NNE,15,5.0,5.0,89,0.00,,,0.00,Wunderground v.1.15,2013-03-24 13:58:00,
2013-03-24 11:03:00,31.2,28.3,29.57,North,360,3.0,5.0,89,0.00,,,0.00,Wunderground v.1.15,2013-03-24 14:03:00,
2013-03-24 11:08:00,31.3,28.2,29.58,North,355,3.0,3.0,88,0.00,,,0.00,Wunderground v.1.15,2013-03-24 14:08:00,
2013-03-24 11:13:00,31.2,27.8,29.58,NE,41,3.0,3.0,87,0.00,,,0.00,Wunderground v.1.15,2013-03-24 14:13:00,
2013-03-24 11:18:00,31.1,28.0,29.58,North,11,3.0,5.0,88,0.00,,,0.00,Wunderground v.1.15,2013-03-24 14:18:00,
2013-03-24 11:23:00,31.1,28.0,29.58,North,11,4.0,5.0,88,0.00,,,0.00,Wunderground v.1.15,2013-03-24 14:23:00,
2013-03-24 11:28:00,31.1,27.7,29.58,North,351,4.0,5.0,87,0.00,,,0.00,Wunderground v.1.15,2013-03-24 14:28:00,
2013-03-24 11:33:00,31.1,27.7,29.59,NE,43,4.0,5.0,87,0.00,,,0.00,Wunderground v.1.15,2013-03-24 14:33:00,
2013-03-24 11:38:00,31.3,27.6,29.59,North,5,4.0,4.0,86,0.00,,,0.00,Wunderground v.1.15,2013-03-24 14:38:00,
2013-03-24 11:48:00,31.8,27.2,29.59,NNE,13,5.0,5.0,83,0.00,,,0.01,Wunderground v.1.15,2013-03-24 14:48:00,
2013-03-24 11:53:00,31.7,27.1,29.59,NNE,22,4.0,5.0,83,0.00,,,0.01,Wunderground v.1.15,2013-03-24 14:53:00,
2013-03-24 11:58:00,32.1,27.2,29.59,North,11,5.0,5.0,82,0.06,,,0.02,Wunderground v.1.15,2013-03-24 14:58:00,
2013-03-24 12:03:00,32.4,27.2,29.59,North,355,5.0,5.0,81,0.06,,,0.02,Wunderground v.1.15,2013-03-24 15:03:00,
2013-03-24 12:08:00,32.6,27.1,29.59,North,5,5.0,5.0,80,0.04,,,0.02,Wunderground v.1.15,2013-03-24 15:08:00,
2013-03-24 12:18:00,33.5,27.4,29.60,ENE,70,4.0,4.0,78,0.13,,,0.02,Wunderground v.1.15,2013-03-24 15:18:00,
2013-03-24 12:23:00,33.2,27.1,29.60,ENE,67,3.0,5.0,78,0.12,,,0.03,Wunderground v.1.15,2013-03-24 15:23:00,
2013-03-24 12:28:00,33.1,27.3,29.60,NNE,33,3.0,3.0,79,0.08,,,0.04,Wunderground v.1.15,2013-03-24 15:28:00,
2013-03-24 12:33:00,33.2,27.1,29.60,NNE,12,4.0,4.0,78,0.08,,,0.04,Wunderground v.1.15,2013-03-24 15:33:00,
2013-03-24 12:38:00,33.4,27.0,29.60,North,355,4.0,7.0,77,0.07,,,0.05,Wunderground v.1.15,2013-03-24 15:38:00,
2013-03-24 12:48:00,33.2,26.8,29.61,NE,36,4.0,4.0,77,0.04,,,0.06,Wunderground v.1.15,2013-03-24 15:48:00,
2013-03-24 12:53:00,33.3,26.9,29.61,North,355,3.0,4.0,77,0.04,,,0.06,Wunderground v.1.15,2013-03-24 15:53:00,
2013-03-24 12:58:00,33.3,26.9,29.61,North,355,3.0,6.0,77,0.04,,,0.06,Wunderground v.1.15,2013-03-24 15:58:00,
2013-03-24 13:03:00,34.7,27.6,29.62,North,351,3.0,6.0,75,0.04,,,0.06,Wunderground v.1.15,2013-03-24 16:03:00,
2013-03-24 13:08:00,34.5,27.1,29.62,North,355,3.0,3.0,74,0.04,,,0.06,Wunderground v.1.15,2013-03-24 16:08:00,
2013-03-24 13:13:00,34.4,27.0,29.62,North,355,3.0,4.0,74,0.04,,,0.06,Wunderground v.1.15,2013-03-24 16:13:00,
2013-03-24 13:18:00,33.7,26.3,29.62,North,11,3.0,4.0,74,0.04,,,0.06,Wunderground v.1.15,2013-03-24 16:18:00,
2013-03-24 13:23:00,33.4,26.3,29.62,North,5,4.0,5.0,75,0.00,,,0.06,Wunderground v.1.15,2013-03-24 16:23:00,
2013-03-24 13:28:00,33.1,25.7,29.63,North,355,4.0,4.0,74,0.00,,,0.07,Wunderground v.1.15,2013-03-24 16:28:00,
2013-03-24 13:33:00,34.3,26.9,29.63,NNW,338,4.0,4.0,74,0.00,,,0.07,Wunderground v.1.15,2013-03-24 16:33:00,
2013-03-24 13:38:00,34.8,26.7,29.63,NNE,22,3.0,5.0,72,0.00,,,0.07,Wunderground v.1.15,2013-03-24 16:38:00,
2013-03-24 13:43:00,34.7,26.6,29.63,North,9,3.0,5.0,72,0.00,,,0.08,Wunderground v.1.15,2013-03-24 16:43:00,
2013-03-24 13:48:00,34.8,26.7,29.63,NE,42,4.0,4.0,72,0.00,,,0.08,Wunderground v.1.15,2013-03-24 16:48:00,
2013-03-24 13:58:00,35.0,26.9,29.64,NNE,22,3.0,6.0,72,0.00,,,0.08,Wunderground v.1.15,2013-03-24 16:58:00,
2013-03-24 14:03:00,34.5,25.7,29.64,North,11,4.0,6.0,70,0.00,,,0.08,Wunderground v.1.15,2013-03-24 17:03:00,
2013-03-24 14:08:00,35.0,26.5,29.64,North,360,4.0,4.0,71,0.00,,,0.08,Wunderground v.1.15,2013-03-24 17:08:00,
2013-03-24 14:13:00,36.5,26.2,29.64,North,355,4.0,4.0,66,0.00,,,0.08,Wunderground v.1.15,2013-03-24 17:13:00,
2013-03-24 14:18:00,36.7,26.8,29.64,NNW,347,3.0,3.0,67,0.00,,,0.09,Wunderground v.1.15,2013-03-24 17:18:00,
2013-03-24 14:23:00,37.6,26.9,29.64,NNW,335,4.0,4.0,65,0.00,,,0.09,Wunderground v.1.15,2013-03-24 17:23:00,
2013-03-24 14:28:00,38.2,25.9,29.64,North,351,4.0,4.0,61,0.00,,,0.09,Wunderground v.1.15,2013-03-24 17:28:00,
2013-03-24 14:33:00,38.5,27.0,29.64,NNE,30,4.0,4.0,63,0.00,,,0.09,Wunderground v.1.15,2013-03-24 17:33:00,
2013-03-24 14:43:00,38.1,26.6,29.65,NNE,17,4.0,4.0,63,0.00,,,0.09,Wunderground v.1.15,2013-03-24 17:43:00,
2013-03-24 14:48:00,37.3,26.2,29.65,NNW,333,3.0,3.0,64,0.00,,,0.09,Wunderground v.1.15,2013-03-24 17:48:00,
2013-03-24 14:53:00,36.4,25.7,29.65,NNW,344,3.0,5.0,65,0.00,,,0.09,Wunderground v.1.15,2013-03-24 17:53:00,
2013-03-24 14:58:00,35.2,25.3,29.65,ENE,78,3.0,3.0,67,0.00,,,0.09,Wunderground v.1.15,2013-03-24 17:58:00,
2013-03-24 15:03:00,34.6,25.1,29.65,NNE,13,3.0,3.0,68,0.00,,,0.09,Wunderground v.1.15,2013-03-24 18:03:00,
2013-03-24 15:08:00,34.3,24.8,29.65,North,11,3.0,3.0,68,0.00,,,0.09,Wunderground v.1.15,2013-03-24 18:08:00,
2013-03-24 15:13:00,34.0,25.2,29.65,NNE,13,3.0,4.0,70,0.00,,,0.09,Wunderground v.1.15,2013-03-24 18:13:00,
2013-03-24 15:18:00,34.0,24.9,29.65,NNE,17,3.0,3.0,69,0.00,,,0.09,Wunderground v.1.15,2013-03-24 18:18:00,
2013-03-24 15:23:00,34.3,25.2,29.65,North,355,3.0,3.0,69,0.00,,,0.09,Wunderground v.1.15,2013-03-24 18:23:00,
2013-03-24 15:28:00,35.8,26.6,29.65,NE,36,3.0,3.0,69,0.00,,,0.09,Wunderground v.1.15,2013-03-24 18:28:00,
2013-03-24 15:33:00,37.1,26.0,29.65,NE,40,2.0,3.0,64,0.00,,,0.09,Wunderground v.1.15,2013-03-24 18:33:00,
2013-03-24 15:38:00,37.1,25.3,29.65,North,5,3.0,3.0,62,0.00,,,0.09,Wunderground v.1.15,2013-03-24 18:38:00,
2013-03-24 15:43:00,36.6,25.2,29.65,NNW,345,3.0,3.0,63,0.00,,,0.09,Wunderground v.1.15,2013-03-24 18:43:00,
2013-03-24 15:48:00,36.4,25.0,29.65,ENE,65,2.0,4.0,63,0.00,,,0.09,Wunderground v.1.15,2013-03-24 18:48:00,
2013-03-24 15:53:00,35.3,24.3,29.65,NNE,17,3.0,4.0,64,0.00,,,0.09,Wunderground v.1.15,2013-03-24 18:53:00,
2013-03-24 15:58:00,35.0,24.4,29.65,North,9,3.0,3.0,65,0.00,,,0.09,Wunderground v.1.15,2013-03-24 18:58:00,
2013-03-24 16:03:00,34.7,24.5,29.65,ENE,65,2.0,3.0,66,0.00,,,0.09,Wunderground v.1.15,2013-03-24 19:03:00,
2013-03-24 16:08:00,35.3,25.1,29.65,NNE,16,2.0,4.0,66,0.00,,,0.09,Wunderground v.1.15,2013-03-24 19:08:00,
2013-03-24 16:13:00,35.5,24.9,29.65,North,351,3.0,4.0,65,0.00,,,0.09,Wunderground v.1.15,2013-03-24 19:13:00,
2013-03-24 16:18:00,37.1,25.3,29.65,NNW,338,3.0,3.0,62,0.00,,,0.09,Wunderground v.1.15,2013-03-24 19:18:00,
2013-03-24 16:23:00,38.6,25.5,29.65,North,355,3.0,4.0,59,0.00,,,0.09,Wunderground v.1.15,2013-03-24 19:23:00,
2013-03-24 16:38:00,36.2,24.4,29.65,NE,51,3.0,4.0,62,0.00,,,0.09,Wunderground v.1.15,2013-03-24 19:38:00,
2013-03-24 16:43:00,35.5,23.8,29.65,North,350,2.0,4.0,62,0.00,,,0.09,Wunderground v.1.15,2013-03-24 19:43:00,
2013-03-24 16:48:00,34.5,23.6,29.65,NE,43,3.0,3.0,64,0.00,,,0.09,Wunderground v.1.15,2013-03-24 19:48:00,
2013-03-24 16:53:00,34.3,23.7,29.65,North,9,3.0,3.0,65,0.00,,,0.09,Wunderground v.1.15,2013-03-24 19:53:00,
2013-03-24 16:58:00,34.6,24.0,29.65,NNE,13,2.0,2.0,65,0.00,,,0.09,Wunderground v.1.15,2013-03-24 19:58:00,
2013-03-24 17:03:00,35.5,24.5,29.65,North,355,2.0,2.0,64,0.00,,,0.09,Wunderground v.1.15,2013-03-24 20:03:00,
2013-03-24 17:08:00,36.6,24.0,29.65,NE,40,3.0,3.0,60,0.00,,,0.09,Wunderground v.1.15,2013-03-24 20:08:00,
2013-03-24 17:18:00,36.6,24.8,29.65,NNE,26,1.0,1.0,62,0.00,,,0.09,Wunderground v.1.15,2013-03-24 20:18:00,
2013-03-24 17:23:00,36.4,25.0,29.65,NE,51,1.0,1.0,63,0.00,,,0.09,Wunderground v.1.15,2013-03-24 20:23:00,
2013-03-24 17:28:00,35.9,25.3,29.65,East,90,2.0,2.0,65,0.00,,,0.09,Wunderground v.1.15,2013-03-24 20:28:00,
2013-03-24 17:33:00,35.1,24.5,29.66,NE,43,2.0,3.0,65,0.00,,,0.09,Wunderground v.1.15,2013-03-24 20:33:00,
2013-03-24 17:38:00,34.8,24.6,29.66,ENE,57,3.0,3.0,66,0.00,,,0.09,Wunderground v.1.15,2013-03-24 20:38:00,
2013-03-24 17:43:00,35.0,24.4,29.66,NNE,17,3.0,3.0,65,0.00,,,0.09,Wunderground v.1.15,2013-03-24 20:43:00,
2013-03-24 17:48:00,35.0,24.8,29.66,NNE,29,3.0,4.0,66,0.00,,,0.09,Wunderground v.1.15,2013-03-24 20:48:00,
2013-03-24 17:53:00,35.1,24.5,29.66,NE,38,2.0,4.0,65,0.00,,,0.09,Wunderground v.1.15,2013-03-24 20:53:00,
2013-03-24 17:58:00,34.9,24.7,29.66,NNE,28,2.0,2.0,66,0.00,,,0.09,Wunderground v.1.15,2013-03-24 20:58:00,
2013-03-24 18:03:00,34.9,24.3,29.66,NNE,23,2.0,3.0,65,0.00,,,0.09,Wunderground v.1.15,2013-03-24 21:03:00,
2013-03-24 18:08:00,35.0,24.0,29.66,North,360,2.0,3.0,64,0.00,,,0.09,Wunderground v.1.15,2013-03-24 21:08:00,
2013-03-24 18:13:00,35.1,24.1,29.66,North,351,3.0,5.0,64,0.00,,,0.09,Wunderground v.1.15,2013-03-24 21:13:00,
2013-03-24 18:18:00,35.3,24.3,29.66,North,350,3.0,4.0,64,0.00,,,0.09,Wunderground v.1.15,2013-03-24 21:18:00,
2013-03-24 18:23:00,35.4,24.0,29.66,North,355,3.0,4.0,63,0.00,,,0.09,Wunderground v.1.15,2013-03-24 21:23:00,
2013-03-24 18:28:00,35.2,23.9,29.66,NNW,345,4.0,4.0,63,0.00,,,0.09,Wunderground v.1.15,2013-03-24 21:28:00,
2013-03-24 18:33:00,35.2,23.9,29.66,North,355,4.0,4.0,63,0.00,,,0.09,Wunderground v.1.15,2013-03-24 21:33:00,
2013-03-24 18:38:00,35.0,23.3,29.66,North,355,4.0,5.0,62,0.00,,,0.09,Wunderground v.1.15,2013-03-24 21:38:00,
2013-03-24 18:43:00,34.4,23.1,29.67,NNW,333,5.0,5.0,63,0.00,,,0.09,Wunderground v.1.15,2013-03-24 21:43:00,
2013-03-24 18:48:00,33.9,23.0,29.67,NNW,342,4.0,4.0,64,0.00,,,0.09,Wunderground v.1.15,2013-03-24 21:48:00,
2013-03-24 18:53:00,33.2,22.7,29.67,North,350,3.0,4.0,65,0.00,,,0.09,Wunderground v.1.15,2013-03-24 21:53:00,
2013-03-24 18:58:00,32.7,22.9,29.67,NNE,24,3.0,3.0,67,0.00,,,0.09,Wunderground v.1.15,2013-03-24 21:58:00,
2013-03-24 19:03:00,32.1,23.1,29.67,NE,42,2.0,3.0,69,0.00,,,0.09,Wunderground v.1.15,2013-03-24 22:03:00,
2013-03-24 19:08:00,31.1,23.1,29.67,NE,38,2.0,2.0,72,0.00,,,0.09,Wunderground v.1.15,2013-03-24 22:08:00,
2013-03-24 19:18:00,29.9,22.9,29.68,NE,40,1.0,1.0,75,0.00,,,0.09,Wunderground v.1.15,2013-03-24 22:18:00,
2013-03-24 19:23:00,29.4,22.8,29.68,NE,44,0.0,1.0,76,0.00,,,0.09,Wunderground v.1.15,2013-03-24 22:23:00,
2013-03-24 19:28:00,29.0,23.0,29.68,NE,44,0.0,0.0,78,0.00,,,0.09,Wunderground v.1.15,2013-03-24 22:28:00,
2013-03-24 19:33:00,28.8,23.1,29.68,North,11,0.0,0.0,79,0.00,,,0.09,Wunderground v.1.15,2013-03-24 22:33:00,
2013-03-24 19:38:00,28.7,23.0,29.68,North,11,0.0,0.0,79,0.00,,,0.09,Wunderground v.1.15,2013-03-24 22:38:00,
2013-03-24 19:43:00,28.4,23.0,29.68,NNE,12,0.0,0.0,80,0.00,,,0.09,Wunderground v.1.15,2013-03-24 22:43:00,
2013-03-24 19:48:00,28.2,22.8,29.68,NNE,12,0.0,0.0,80,0.00,,,0.09,Wunderground v.1.15,2013-03-24 22:48:00,
2013-03-24 19:53:00,28.0,23.2,29.68,NNE,19,0.0,0.0,82,0.00,,,0.09,Wunderground v.1.15,2013-03-24 22:53:00,
2013-03-24 19:58:00,27.9,23.1,29.68,North,9,0.0,0.0,82,0.00,,,0.09,Wunderground v.1.15,2013-03-24 22:58:00,
2013-03-24 20:08:00,27.7,22.9,29.68,North,9,0.0,0.0,82,0.00,,,0.09,Wunderground v.1.15,2013-03-24 23:08:00,
2013-03-24 20:13:00,27.5,23.0,29.68,North,9,0.0,0.0,83,0.00,,,0.09,Wunderground v.1.15,2013-03-24 23:13:00,
2013-03-24 20:18:00,27.3,22.8,29.68,North,9,0.0,0.0,83,0.00,,,0.09,Wunderground v.1.15,2013-03-24 23:18:00,
2013-03-24 20:23:00,27.1,22.6,29.68,North,9,0.0,0.0,83,0.00,,,0.09,Wunderground v.1.15,2013-03-24 23:23:00,
2013-03-24 20:28:00,26.9,22.7,29.68,North,9,0.0,0.0,84,0.00,,,0.09,Wunderground v.1.15,2013-03-24 23:28:00,
2013-03-24 20:33:00,26.7,22.8,29.68,North,9,0.0,0.0,85,0.00,,,0.09,Wunderground v.1.15,2013-03-24 23:33:00,
2013-03-24 20:38:00,26.5,22.6,29.68,North,9,0.0,0.0,85,0.00,,,0.09,Wunderground v.1.15,2013-03-24 23:38:00,
2013-03-24 20:43:00,26.4,22.8,29.68,North,9,0.0,0.0,86,0.00,,,0.09,Wunderground v.1.15,2013-03-24 23:43:00,
2013-03-24 20:48:00,26.3,22.7,29.68,North,9,0.0,0.0,86,0.00,,,0.09,Wunderground v.1.15,2013-03-24 23:48:00,
2013-03-24 20:53:00,26.1,22.5,29.69,North,9,0.0,0.0,86,0.00,,,0.09,Wunderground v.1.15,2013-03-24 23:53:00,
2013-03-24 20:58:00,26.0,22.4,29.69,North,9,0.0,0.0,86,0.00,,,0.09,Wunderground v.1.15,2013-03-24 23:58:00,
2013-03-24 21:03:00,25.8,22.5,29.69,North,9,0.0,0.0,87,0.00,,,0.09,Wunderground v.1.15,2013-03-25 00:03:00,
2013-03-24 21:13:00,25.7,22.6,29.69,North,9,0.0,0.0,88,0.00,,,0.09,Wunderground v.1.15,2013-03-25 00:13:00,
2013-03-24 21:18:00,25.6,22.5,29.69,North,9,0.0,0.0,88,0.00,,,0.09,Wunderground v.1.15,2013-03-25 00:18:00,
2013-03-24 21:28:00,25.0,21.9,29.70,North,9,0.0,0.0,88,0.00,,,0.09,Wunderground v.1.15,2013-03-25 00:28:00,
2013-03-24 21:33:00,24.9,22.1,29.69,North,9,0.0,0.0,89,0.00,,,0.09,Wunderground v.1.15,2013-03-25 00:33:00,
2013-03-24 21:38:00,25.1,22.3,29.69,North,9,0.0,0.0,89,0.00,,,0.09,Wunderground v.1.15,2013-03-25 00:38:00,
2013-03-24 21:43:00,25.2,22.4,29.69,North,9,0.0,0.0,89,0.00,,,0.09,Wunderground v.1.15,2013-03-25 00:43:00,
2013-03-24 21:48:00,25.2,22.4,29.69,North,9,0.0,0.0,89,0.00,,,0.09,Wunderground v.1.15,2013-03-25 00:48:00,
2013-03-24 21:53:00,25.2,22.1,29.70,North,9,0.0,0.0,88,0.00,,,0.09,Wunderground v.1.15,2013-03-25 00:53:00,
2013-03-24 21:58:00,24.9,21.8,29.70,North,9,0.0,0.0,88,0.00,,,0.09,Wunderground v.1.15,2013-03-25 00:58:00,
2013-03-24 22:03:00,24.6,21.6,29.69,North,9,0.0,0.0,88,0.00,,,0.09,Wunderground v.1.15,2013-03-25 01:03:00,
2013-03-24 22:08:00,24.3,21.3,29.69,North,9,0.0,0.0,88,0.00,,,0.09,Wunderground v.1.15,2013-03-25 01:08:00,
2013-03-24 22:13:00,24.0,21.2,29.69,North,9,0.0,0.0,89,0.00,,,0.09,Wunderground v.1.15,2013-03-25 01:13:00,
2013-03-24 22:18:00,23.9,21.4,29.69,North,9,0.0,0.0,90,0.00,,,0.09,Wunderground v.1.15,2013-03-25 01:18:00,
2013-03-24 22:23:00,23.8,21.3,29.69,North,9,0.0,0.0,90,0.00,,,0.09,Wunderground v.1.15,2013-03-25 01:23:00,
2013-03-24 22:33:00,23.5,21.3,29.69,North,9,0.0,0.0,91,0.00,,,0.09,Wunderground v.1.15,2013-03-25 01:33:00,
2013-03-24 22:43:00,23.4,21.2,29.69,North,9,0.0,0.0,91,0.00,,,0.09,Wunderground v.1.15,2013-03-25 01:43:00,
2013-03-24 22:48:00,23.4,21.2,29.69,North,9,0.0,0.0,91,0.00,,,0.09,Wunderground v.1.15,2013-03-25 01:48:00,
2013-03-24 22:53:00,23.3,20.8,29.69,North,9,0.0,0.0,90,0.00,,,0.09,Wunderground v.1.15,2013-03-25 01:53:00,
2013-03-24 22:58:00,23.0,20.5,29.69,NW,308,1.0,2.0,90,0.00,,,0.09,Wunderground v.1.15,2013-03-25 01:58:00,
2013-03-24 23:08:00,22.6,20.4,29.69,WNW,296,2.0,3.0,91,0.00,,,0.09,Wunderground v.1.15,2013-03-25 02:08:00,
2013-03-24 23:18:00,22.7,20.7,29.68,NW,306,3.0,3.0,92,0.00,,,0.09,Wunderground v.1.15,2013-03-25 02:18:00,
2013-03-24 23:23:00,22.9,20.7,29.68,WNW,300,3.0,4.0,91,0.00,,,0.09,Wunderground v.1.15,2013-03-25 02:23:00,
2013-03-24 23:28:00,22.9,20.7,29.68,NW,307,3.0,3.0,91,0.00,,,0.09,Wunderground v.1.15,2013-03-25 02:28:00,
2013-03-24 23:33:00,22.9,20.7,29.68,WNW,296,4.0,4.0,91,0.00,,,0.09,Wunderground v.1.15,2013-03-25 02:33:00,
2013-03-24 23:38:00,22.9,20.7,29.68,WNW,294,3.0,3.0,91,0.00,,,0.09,Wunderground v.1.15,2013-03-25 02:38:00,
2013-03-24 23:43:00,23.1,20.9,29.68,WNW,294,2.0,3.0,91,0.00,,,0.09,Wunderground v.1.15,2013-03-25 02:43:00,
2013-03-24 23:48:00,23.2,21.0,29.68,WNW,292,2.0,3.0,91,0.00,,,0.09,Wunderground v.1.15,2013-03-25 02:48:00,
2013-03-24 23:58:00,23.5,21.3,29.68,WNW,293,3.0,4.0,91,0.00,,,0.09,Wunderground v.1.15,2013-03-25 02:58:00,